Time;durP1;ratioP1;P1;durP2;ratioP2;P2;SDS_P1;SDS_P2;PMS_P1;PMS_P2;Temp;Humidity;BMP_temperature;BMP_pressure;BME280_temperature;BME280_humidity;BME280_pressure;Samples;Min_cycle;Max_cycle;Signal;HPM_P1;HPM_P2
2022/11/26 00:01:30;;;;;;;;;;;;;;;16.03;51.57;101329.41;5040065;28;1144;-51
2022/11/26 00:03:58;;;;;;;;;;;;;;;16.80;49.88;101332.09;5057563;28;1460;-50
2022/11/26 00:06:28;;;;;;;;;;;;;;;17.17;48.58;101342.31;5058446;28;1120;-50
2022/11/26 00:08:54;;;;;;;;;;;;;;;16.37;50.67;101341.03;5057960;28;1132;-51
2022/11/26 00:11:19;;;;;;;;;;;;;;;16.97;49.51;101332.84;5057922;28;1120;-50
2022/11/26 00:13:44;;;;;;;;;;;;;;;17.24;48.38;101326.44;5057180;28;1937;-50
2022/11/26 00:16:11;;;;;;;;;;;;;;;16.50;50.43;101333.47;5057738;28;1112;-50
2022/11/26 00:18:36;;;;;;;;;;;;;;;16.15;51.02;101329.28;5057989;28;1183;-49
2022/11/26 00:21:02;;;;;;;;;;;;;;;16.00;51.67;101332.66;5057898;28;1139;-50
2022/11/26 00:23:27;;;;;;;;;;;;;;;17.47;47.99;101333.44;5039159;28;1235;-51
2022/11/26 00:25:57;;;;;;;;;;;;;;;16.62;49.75;101336.91;5057849;28;1213;-49
2022/11/26 00:28:29;;;;;;;;;;;;;;;16.17;51.25;101349.03;5040308;28;1113;-49
2022/11/26 00:30:56;;;;;;;;;;;;;;;16.55;50.60;101353.56;5057590;28;1128;-51
2022/11/26 00:33:22;;;;;;;;;;;;;;;17.21;48.55;101362.69;5056883;28;1230;-49
2022/11/26 00:35:48;;;;;;;;;;;;;;;16.42;50.30;101368.53;5056502;28;1909;-50
2022/11/26 00:38:14;;;;;;;;;;;;;;;16.12;51.05;101373.66;5039976;28;1184;-49
2022/11/26 00:40:40;;;;;;;;;;;;;;;16.92;49.38;101379.47;5057438;28;1210;-50
2022/11/26 00:43:05;;;;;;;;;;;;;;;17.32;48.10;101385.56;5057536;28;1280;-48
2022/11/26 00:45:31;;;;;;;;;;;;;;;16.49;50.21;101382.03;5056349;28;1155;-49
2022/11/26 00:47:56;;;;;;;;;;;;;;;16.18;51.15;101383.63;5056752;28;1123;-51
2022/11/26 00:50:22;;;;;;;;;;;;;;;17.28;48.60;101383.34;5057387;28;1222;-51
2022/11/26 00:52:49;;;;;;;;;;;;;;;16.95;49.03;101376.22;5057148;28;1186;-50
2022/11/26 00:55:26;;;;;;;;;;;;;;;16.39;50.50;101380.03;5038768;28;1914;-51
2022/11/26 00:57:52;;;;;;;;;;;;;;;16.20;51.16;101375.94;5057364;28;1252;-47
2022/11/26 01:00:18;;;;;;;;;;;;;;;17.43;47.99;101388.13;5057020;28;902;-48
2022/11/26 01:02:43;;;;;;;;;;;;;;;16.54;49.97;101392.28;5056443;28;1143;-48
2022/11/26 01:05:09;;;;;;;;;;;;;;;16.18;50.89;101389.94;5056408;28;1198;-51
2022/11/26 01:07:34;;;;;;;;;;;;;;;17.56;47.72;101383.28;5056572;28;1136;-51
2022/11/26 01:10:00;;;;;;;;;;;;;;;16.81;49.54;101385.94;5057233;28;1163;-50
2022/11/26 01:12:25;;;;;;;;;;;;;;;16.32;50.75;101387.63;5056991;28;1120;-47
2022/11/26 01:14:51;;;;;;;;;;;;;;;16.37;50.50;101387.69;5055952;28;1889;-51
2022/11/26 01:17:16;;;;;;;;;;;;;;;17.55;47.54;101379.69;5056408;28;1120;-51
2022/11/26 01:19:42;;;;;;;;;;;;;;;16.64;49.70;101391.56;5056795;28;1092;-51
2022/11/26 01:22:33;;;;;;;;;;;;;;;16.24;50.71;101388.94;5056694;28;1160;-48
2022/11/26 01:24:59;;;;;;;;;;;;;;;16.60;50.39;101393.97;5051211;28;1595;-48
2022/11/26 01:27:24;;;;;;;;;;;;;;;17.16;48.34;101382.69;5056093;28;1195;-49
2022/11/26 01:29:49;;;;;;;;;;;;;;;16.47;50.13;101386.97;5056918;28;1136;-50
2022/11/26 01:32:15;;;;;;;;;;;;;;;16.47;50.41;101386.16;5056747;28;1133;-51
2022/11/26 01:34:40;;;;;;;;;;;;;;;17.34;48.02;101389.72;5055699;28;1902;-50
2022/11/26 01:37:13;;;;;;;;;;;;;;;16.50;50.19;101396.63;5055345;28;878;-51
2022/11/26 01:39:38;;;;;;;;;;;;;;;16.20;51.10;101398.75;5055777;28;1156;-49
2022/11/26 01:42:19;;;;;;;;;;;;;;;16.04;51.13;101405.94;5056791;28;1207;-51
2022/11/26 01:44:44;;;;;;;;;;;;;;;17.55;47.55;101403.59;5055980;28;1151;-50
2022/11/26 01:47:19;;;;;;;;;;;;;;;16.67;49.87;101413.00;5055224;28;1108;-49
2022/11/26 01:50:03;;;;;;;;;;;;;;;16.22;50.70;101406.72;5055957;28;1226;-50
2022/11/26 01:52:28;;;;;;;;;;;;;;;17.47;47.82;101409.59;5055912;28;1136;-49
2022/11/26 01:54:53;;;;;;;;;;;;;;;16.87;49.03;101418.69;5055733;28;1970;-49
2022/11/26 01:57:24;;;;;;;;;;;;;;;16.36;50.66;101407.16;5055301;28;951;-50
2022/11/26 01:59:50;;;;;;;;;;;;;;;16.57;50.13;101416.47;5037807;28;1215;-51
2022/11/26 02:02:16;;;;;;;;;;;;;;;17.35;47.99;101407.03;5038499;28;1176;-52
2022/11/26 02:05:02;;;;;;;;;;;;;;;16.54;50.22;101408.75;5037614;28;1198;-51
2022/11/26 02:07:28;;;;;;;;;;;;;;;16.13;51.24;101416.47;5037623;28;1141;-51
2022/11/26 02:09:53;;;;;;;;;;;;;;;16.80;49.70;101422.72;5055676;28;1218;-51
2022/11/26 02:12:19;;;;;;;;;;;;;;;17.15;48.45;101429.69;5055527;28;1120;-49
2022/11/26 02:14:45;;;;;;;;;;;;;;;16.40;50.47;101433.84;5055231;28;1905;-50
2022/11/26 02:17:16;;;;;;;;;;;;;;;16.33;50.59;101441.44;5055665;28;1132;-48
2022/11/26 02:19:44;;;;;;;;;;;;;;;17.60;47.57;101436.66;5055337;28;1159;-50
2022/11/26 02:22:42;;;;;;;;;;;;;;;16.61;49.85;101445.06;5055343;28;1235;-51
2022/11/26 02:25:13;;;;;;;;;;;;;;;16.18;50.83;101454.97;5027525;28;1033;-51
2022/11/26 02:27:38;;;;;;;;;;;;;;;16.60;50.05;101448.88;5053435;28;1207;-49
2022/11/26 02:30:05;;;;;;;;;;;;;;;17.38;48.02;101459.56;5055483;28;1175;-51
2022/11/26 02:32:33;;;;;;;;;;;;;;;16.49;50.36;101456.16;5055359;28;1207;-49
2022/11/26 02:35:11;;;;;;;;;;;;;;;16.16;50.88;101457.97;5037233;28;1975;-51
2022/11/26 02:37:37;;;;;;;;;;;;;;;16.85;49.48;101455.75;5054954;28;894;-51
2022/11/26 02:40:03;;;;;;;;;;;;;;;17.02;48.95;101458.44;5055379;28;1194;-50
2022/11/26 02:42:30;;;;;;;;;;;;;;;16.36;50.44;101460.13;5055427;28;1143;-47
2022/11/26 02:45:00;;;;;;;;;;;;;;;16.41;50.74;101454.72;5055479;28;1120;-49
2022/11/26 02:47:26;;;;;;;;;;;;;;;17.27;48.34;101460.56;5055657;28;1148;-44
2022/11/26 02:49:52;;;;;;;;;;;;;;;16.47;50.38;101457.53;5036761;28;1143;-49
2022/11/26 02:52:17;;;;;;;;;;;;;;;16.14;51.11;101459.31;5059621;28;1131;-50
2022/11/26 02:54:42;;;;;;;;;;;;;;;16.60;50.04;101457.13;5041466;28;1902;-49
2022/11/26 02:57:09;;;;;;;;;;;;;;;17.20;48.55;101463.53;5041851;28;1203;-48
2022/11/26 02:59:35;;;;;;;;;;;;;;;16.44;50.33;101469.84;5040776;28;1140;-52
2022/11/26 03:02:02;;;;;;;;;;;;;;;16.13;51.05;101463.97;5041664;28;1246;-50
2022/11/26 03:04:29;;;;;;;;;;;;;;;17.50;47.92;101458.56;5041332;28;1175;-52
2022/11/26 03:06:55;;;;;;;;;;;;;;;16.73;49.73;101467.72;5040938;28;1168;-51
2022/11/26 03:09:21;;;;;;;;;;;;;;;16.30;50.75;101476.78;5041316;28;1164;-51
2022/11/26 03:11:46;;;;;;;;;;;;;;;16.06;51.52;101485.25;5058762;28;1195;-52
2022/11/26 03:14:12;;;;;;;;;;;;;;;16.98;49.65;101487.50;5058756;28;1901;-48
2022/11/26 03:16:37;;;;;;;;;;;;;;;17.05;48.92;101491.69;5058992;28;1124;-51
2022/11/26 03:19:02;;;;;;;;;;;;;;;16.41;50.56;101508.75;5058750;28;1116;-50
2022/11/26 03:21:28;;;;;;;;;;;;;;;16.43;50.83;101501.13;5058640;28;1139;-53
2022/11/26 03:23:53;;;;;;;;;;;;;;;17.28;48.32;101506.22;5040307;28;1192;-52
2022/11/26 03:26:19;;;;;;;;;;;;;;;16.49;50.50;101502.84;5059121;28;1194;-49
2022/11/26 03:28:44;;;;;;;;;;;;;;;16.15;51.13;101505.69;5059122;28;1226;-51
2022/11/26 03:31:10;;;;;;;;;;;;;;;17.56;47.89;101507.03;5057977;28;1120;-52
2022/11/26 03:33:35;;;;;;;;;;;;;;;16.71;50.00;101513.00;5058524;28;1171;-51
2022/11/26 03:36:00;;;;;;;;;;;;;;;16.31;50.84;101514.13;5058205;28;1964;-52
2022/11/26 03:38:26;;;;;;;;;;;;;;;16.42;50.83;101522.25;5058754;28;1127;-51
2022/11/26 03:40:57;;;;;;;;;;;;;;;17.55;47.62;101519.09;5058271;28;1214;-51
2022/11/26 03:43:23;;;;;;;;;;;;;;;16.61;50.05;101513.72;5058210;28;1160;-52
2022/11/26 03:45:48;;;;;;;;;;;;;;;16.20;51.24;101502.19;5058544;28;1171;-50
2022/11/26 03:48:14;;;;;;;;;;;;;;;17.01;49.30;101501.56;5058144;28;1249;-51
2022/11/26 03:50:39;;;;;;;;;;;;;;;17.08;49.08;101504.09;5058092;28;1139;-50
2022/11/26 03:53:05;;;;;;;;;;;;;;;16.46;50.51;101499.78;5057751;28;1191;-48
2022/11/26 03:55:30;;;;;;;;;;;;;;;16.11;51.23;101492.75;5058450;28;1977;-47
2022/11/26 03:57:55;;;;;;;;;;;;;;;17.28;48.63;101492.47;5058395;28;1202;-50
2022/11/26 04:00:21;;;;;;;;;;;;;;;16.88;49.42;101499.19;5057872;28;1124;-48
2022/11/26 04:02:46;;;;;;;;;;;;;;;16.35;50.66;101499.63;5057578;28;1217;-47
2022/11/26 04:05:12;;;;;;;;;;;;;;;16.08;51.24;101489.41;5057727;28;1148;-49
2022/11/26 04:07:37;;;;;;;;;;;;;;;16.34;51.00;101500.75;5058352;28;1104;-49
2022/11/26 04:10:03;;;;;;;;;;;;;;;17.58;47.84;101508.38;5051557;28;1500;-49
2022/11/26 04:12:28;;;;;;;;;;;;;;;16.57;50.01;101520.78;5056901;28;1128;-51
2022/11/26 04:14:54;;;;;;;;;;;;;;;16.21;50.97;101509.34;5057796;28;1986;-50
2022/11/26 04:17:19;;;;;;;;;;;;;;;17.32;48.58;101512.84;5056195;28;1374;-49
2022/11/26 04:19:45;;;;;;;;;;;;;;;16.89;49.21;101514.63;5057597;28;961;-51
2022/11/26 04:22:10;;;;;;;;;;;;;;;16.35;50.73;101518.84;5057514;28;1194;-51
2022/11/26 04:24:35;;;;;;;;;;;;;;;16.13;51.24;101518.84;5057136;28;1088;-49
2022/11/26 04:27:01;;;;;;;;;;;;;;;17.41;48.19;101514.03;5057674;28;1112;-51
2022/11/26 04:29:26;;;;;;;;;;;;;;;16.79;49.52;101509.81;5057281;28;1191;-57
2022/11/26 04:31:52;;;;;;;;;;;;;;;16.32;50.87;101513.88;5046425;28;1124;-57
2022/11/26 04:34:17;;;;;;;;;;;;;;;16.01;51.51;101516.19;5054233;28;1902;-55
2022/11/26 04:36:42;;;;;;;;;;;;;;;17.51;48.11;101515.22;5057100;28;1156;-57
2022/11/26 04:39:08;;;;;;;;;;;;;;;16.85;49.30;101521.69;5056945;28;2092;-54
2022/11/26 04:41:33;;;;;;;;;;;;;;;16.34;50.73;101530.09;5057629;28;1171;-52
2022/11/26 04:43:59;;;;;;;;;;;;;;;16.06;51.31;101534.63;5056626;28;1191;-56
2022/11/26 04:46:24;;;;;;;;;;;;;;;17.07;49.31;101547.22;5057414;28;1136;-56
2022/11/26 04:48:50;;;;;;;;;;;;;;;17.01;49.04;101556.53;5056819;28;1131;-56
2022/11/26 04:51:15;;;;;;;;;;;;;;;16.38;50.79;101565.03;5057782;28;1111;-51
2022/11/26 04:53:40;;;;;;;;;;;;;;;16.11;51.46;101566.81;5056159;28;1187;-59
2022/11/26 04:56:06;;;;;;;;;;;;;;;17.56;48.04;101573.03;5056826;28;1981;-57
2022/11/26 04:58:32;;;;;;;;;;;;;;;16.65;49.96;101574.41;5056857;28;1111;-58
2022/11/26 05:00:57;;;;;;;;;;;;;;;16.22;51.03;101579.59;5056714;28;1128;-60
2022/11/26 05:03:22;;;;;;;;;;;;;;;17.13;49.03;101592.09;5056404;28;1194;-60
2022/11/26 05:05:48;;;;;;;;;;;;;;;16.98;49.14;101584.47;5056163;28;1080;-60
2022/11/26 05:08:13;;;;;;;;;;;;;;;16.34;50.95;101585.81;5039116;28;1253;-60
2022/11/26 05:10:39;;;;;;;;;;;;;;;16.07;51.42;101586.53;5056174;28;2657;-54
2022/11/26 05:13:04;;;;;;;;;;;;;;;17.35;48.33;101588.47;5055584;28;1151;-58
2022/11/26 05:15:29;;;;;;;;;;;;;;;16.83;49.60;101584.25;5044008;28;2224;-57
2022/11/26 05:17:55;;;;;;;;;;;;;;;16.30;50.71;101583.81;5053355;28;1163;-56
2022/11/26 05:20:20;;;;;;;;;;;;;;;16.40;50.85;101592.22;5056917;28;1108;-59
2022/11/26 05:22:46;;;;;;;;;;;;;;;17.61;47.70;101586.78;5055518;28;1171;-59
2022/11/26 05:25:11;;;;;;;;;;;;;;;16.63;50.07;101582.09;5042475;28;1215;-57
2022/11/26 05:27:36;;;;;;;;;;;;;;;16.24;51.16;101585.66;5056908;28;1159;-58
2022/11/26 05:30:02;;;;;;;;;;;;;;;16.00;51.50;101585.03;5056381;28;1179;-64
2022/11/26 05:32:28;;;;;;;;;;;;;;;17.13;49.14;101588.53;5056502;28;1156;-57
2022/11/26 05:34:53;;;;;;;;;;;;;;;17.20;48.53;101575.41;5055055;28;1909;-57
2022/11/26 05:37:19;;;;;;;;;;;;;;;16.43;50.75;101580.72;5055698;28;1167;-60
2022/11/26 05:39:44;;;;;;;;;;;;;;;16.12;51.12;101584.91;5056354;28;1814;-57
2022/11/26 05:42:09;;;;;;;;;;;;;;;15.98;51.65;101578.97;5056164;28;1132;-57
2022/11/26 05:44:35;;;;;;;;;;;;;;;17.50;48.05;101590.53;5054988;28;1104;-57
2022/11/26 05:47:01;;;;;;;;;;;;;;;16.53;50.37;101589.09;5055876;28;1143;-57
2022/11/26 05:49:26;;;;;;;;;;;;;;;16.15;51.13;101603.66;5055908;28;1116;-60
2022/11/26 05:51:52;;;;;;;;;;;;;;;17.43;48.16;101597.09;5055806;28;1151;-56
2022/11/26 05:54:17;;;;;;;;;;;;;;;16.84;49.41;101605.16;5055654;28;1914;-59
2022/11/26 05:56:43;;;;;;;;;;;;;;;16.33;50.69;101606.13;5037673;28;1140;-57
2022/11/26 05:59:08;;;;;;;;;;;;;;;17.28;48.79;101627.16;5055928;28;1155;-58
2022/11/26 06:01:33;;;;;;;;;;;;;;;16.96;49.25;101619.63;5055474;28;1124;-57
2022/11/26 06:03:59;;;;;;;;;;;;;;;16.45;50.54;101636.19;5054966;28;1128;-58
2022/11/26 06:06:24;;;;;;;;;;;;;;;16.29;50.91;101632.41;5055363;28;1203;-56
2022/11/26 06:08:50;;;;;;;;;;;;;;;17.39;48.22;101633.59;5055790;28;1888;-58
2022/11/26 06:11:15;;;;;;;;;;;;;;;16.52;50.33;101634.13;5055297;28;1211;-58
2022/11/26 06:13:41;;;;;;;;;;;;;;;16.17;51.13;101628.91;5055119;28;1162;-59
2022/11/26 06:16:07;;;;;;;;;;;;;;;16.42;50.87;101632.06;5041387;28;1983;-58
2022/11/26 06:18:32;;;;;;;;;;;;;;;17.54;47.91;101636.50;5055498;28;1109;-56
2022/11/26 06:20:59;;;;;;;;;;;;;;;16.57;50.10;101639.69;5055898;28;1157;-58
2022/11/26 06:23:24;;;;;;;;;;;;;;;16.22;51.01;101649.03;5054940;28;1183;-58
2022/11/26 06:25:50;;;;;;;;;;;;;;;17.08;49.17;101646.97;5054150;28;1136;-56
2022/11/26 06:28:15;;;;;;;;;;;;;;;17.09;48.84;101651.41;5055344;28;1112;-56
2022/11/26 06:30:42;;;;;;;;;;;;;;;17.39;48.40;101650.09;5041100;28;1104;-57
2022/11/26 06:33:08;;;;;;;;;;;;;;;16.82;49.43;101651.28;5055341;28;1164;-57
2022/11/26 06:35:33;;;;;;;;;;;;;;;16.33;49.68;101660.19;5054919;28;1913;-59
2022/11/26 06:38:00;;;;;;;;;;;;;;;17.03;49.48;101653.25;5054972;28;1184;-58
2022/11/26 06:40:25;;;;;;;;;;;;;;;16.37;49.75;101651.19;5055136;28;2173;-57
2022/11/26 06:42:51;;;;;;;;;;;;;;;16.09;49.13;101654.88;5041369;28;1148;-59
2022/11/26 06:45:17;;;;;;;;;;;;;;;17.16;48.92;101656.69;5055081;28;1207;-59
2022/11/26 06:47:42;;;;;;;;;;;;;;;16.29;49.49;101656.28;5054408;28;1069;-58
2022/11/26 06:50:08;;;;;;;;;;;;;;;16.13;49.46;101660.66;5023968;28;1160;-58
2022/11/26 06:52:33;;;;;;;;;;;;;;;16.62;49.64;101663.66;5055294;28;1127;-58
2022/11/26 06:54:59;;;;;;;;;;;;;;;16.18;49.10;101663.50;5050078;28;1906;-59
2022/11/26 06:57:24;;;;;;;;;;;;;;;17.78;47.99;101663.69;5034264;28;1144;-58
2022/11/26 06:59:50;;;;;;;;;;;;;;;16.65;49.46;101668.63;5051723;28;1172;-59
2022/11/26 07:02:15;;;;;;;;;;;;;;;18.18;47.26;101664.38;5055197;28;1163;-57
2022/11/26 07:04:41;;;;;;;;;;;;;;;18.05;47.45;101663.72;5054502;28;1079;-57
2022/11/26 07:07:06;;;;;;;;;;;;;;;16.93;49.04;101670.44;5054757;28;1155;-58
2022/11/26 07:09:32;;;;;;;;;;;;;;;16.62;48.23;101673.78;5037711;28;2539;-58
2022/11/26 07:11:57;;;;;;;;;;;;;;;16.79;49.02;101673.75;5055026;28;1178;-57
2022/11/26 07:14:23;;;;;;;;;;;;;;;16.92;49.27;101678.94;5054231;28;1909;-59
2022/11/26 07:16:48;;;;;;;;;;;;;;;16.46;48.86;101679.03;5055025;28;1104;-57
2022/11/26 07:19:14;;;;;;;;;;;;;;;16.90;49.34;101672.84;5054532;28;1120;-59
2022/11/26 07:21:39;;;;;;;;;;;;;;;16.72;49.23;101676.69;5055170;28;1120;-59
2022/11/26 07:24:04;;;;;;;;;;;;;;;16.92;49.52;101673.44;5054594;28;1163;-59
2022/11/26 07:26:30;;;;;;;;;;;;;;;18.10;47.73;101674.78;5054667;28;1167;-57
2022/11/26 07:28:55;;;;;;;;;;;;;;;17.03;49.12;101675.22;5054521;28;1099;-58
2022/11/26 07:31:21;;;;;;;;;;;;;;;16.56;48.83;101681.13;5040910;28;1125;-59
2022/11/26 07:33:46;;;;;;;;;;;;;;;16.99;49.57;101684.25;5054411;28;1140;-59
2022/11/26 07:36:15;;;;;;;;;;;;;;;16.69;49.37;101682.69;5054669;28;1983;-57
2022/11/26 07:38:41;;;;;;;;;;;;;;;16.31;48.73;101687.03;5057269;28;2478;-58
2022/11/26 07:41:07;;;;;;;;;;;;;;;17.64;48.38;101679.78;5041844;28;1175;-56
2022/11/26 07:43:33;;;;;;;;;;;;;;;16.62;49.72;101682.88;5046389;28;1054;-57
2022/11/26 07:46:02;;;;;;;;;;;;;;;16.42;49.10;101692.47;5058063;28;1166;-56
2022/11/26 07:48:28;;;;;;;;;;;;;;;17.28;49.00;101687.63;5057886;28;1194;-54
2022/11/26 07:50:53;;;;;;;;;;;;;;;17.24;49.54;101701.06;5058421;28;1128;-54
2022/11/26 07:53:19;;;;;;;;;;;;;;;18.81;46.50;101708.63;5057986;28;1103;-50
2022/11/26 07:55:44;;;;;;;;;;;;;;;17.62;48.60;101698.47;5057869;28;1901;-53
2022/11/26 07:58:10;;;;;;;;;;;;;;;16.96;48.78;101691.06;5058049;28;1104;-54
2022/11/26 08:00:35;;;;;;;;;;;;;;;16.60;48.43;101701.50;5057340;28;1104;-55
2022/11/26 08:03:01;;;;;;;;;;;;;;;17.03;49.16;101693.66;5057582;28;1377;-55
2022/11/26 08:05:26;;;;;;;;;;;;;;;16.88;49.14;101694.22;5058245;28;1096;-54
2022/11/26 08:07:51;;;;;;;;;;;;;;;17.32;49.46;101702.53;5058042;28;1131;-55
2022/11/26 08:10:17;;;;;;;;;;;;;;;18.09;47.77;101700.63;5043116;28;2544;-54
2022/11/26 08:12:42;;;;;;;;;;;;;;;17.03;49.18;101697.22;5058029;28;1175;-55
2022/11/26 08:15:08;;;;;;;;;;;;;;;16.75;48.20;101695.41;5057572;28;1901;-52
2022/11/26 08:17:34;;;;;;;;;;;;;;;17.45;49.25;101691.13;5057252;28;1218;-54
2022/11/26 08:19:59;;;;;;;;;;;;;;;16.75;49.24;101690.75;5054413;28;1325;-54
2022/11/26 08:22:24;;;;;;;;;;;;;;;16.72;49.33;101699.50;5057308;28;1166;-56
2022/11/26 08:24:50;;;;;;;;;;;;;;;17.23;49.05;101701.31;5057347;28;1128;-49
2022/11/26 08:27:16;;;;;;;;;;;;;;;16.70;48.95;101703.56;5057532;28;1092;-54
2022/11/26 08:29:41;;;;;;;;;;;;;;;16.52;48.05;101708.25;5057643;28;1096;-53
2022/11/26 08:32:06;;;;;;;;;;;;;;;17.26;48.94;101711.78;5057498;28;1116;-54
2022/11/26 08:34:32;;;;;;;;;;;;;;;16.64;48.89;101699.09;5057040;28;1942;-56
2022/11/26 08:36:57;;;;;;;;;;;;;;;17.53;48.71;101702.75;5057313;28;1119;-53
2022/11/26 08:39:23;;;;;;;;;;;;;;;17.00;49.14;101705.97;5056191;28;1814;-55
2022/11/26 08:41:48;;;;;;;;;;;;;;;16.65;48.53;101704.34;5057236;28;1191;-55
2022/11/26 08:44:14;;;;;;;;;;;;;;;17.71;48.51;101707.94;5056807;28;1124;-55
2022/11/26 08:46:40;;;;;;;;;;;;;;;16.75;49.17;101709.97;5019629;28;1109;-55
2022/11/26 08:49:05;;;;;;;;;;;;;;;16.46;48.87;101722.16;5048706;28;1222;-54
2022/11/26 08:51:31;;;;;;;;;;;;;;;17.10;48.88;101714.34;5056529;28;1210;-55
2022/11/26 08:53:57;;;;;;;;;;;;;;;16.77;49.14;101713.31;5056816;28;1906;-55
2022/11/26 08:56:22;;;;;;;;;;;;;;;18.20;47.67;101703.47;5056993;28;1155;-52
2022/11/26 08:58:47;;;;;;;;;;;;;;;18.42;46.99;101706.13;5057254;28;1113;-53
2022/11/26 09:01:14;;;;;;;;;;;;;;;17.22;49.03;101705.13;5042907;28;1088;-52
2022/11/26 09:03:40;;;;;;;;;;;;;;;16.83;48.46;101705.13;5055122;28;1093;-54
2022/11/26 09:06:05;;;;;;;;;;;;;;;17.52;49.07;101698.38;5056412;28;1182;-54
2022/11/26 09:08:33;;;;;;;;;;;;;;;16.92;49.36;101700.91;5056478;28;2478;-54
2022/11/26 09:10:58;;;;;;;;;;;;;;;16.62;48.71;101702.09;5042945;28;1073;-50
2022/11/26 09:13:24;;;;;;;;;;;;;;;17.50;48.69;101697.78;5056158;28;1136;-52
2022/11/26 09:15:49;;;;;;;;;;;;;;;16.76;48.95;101692.41;5049732;28;1907;-53
2022/11/26 09:18:15;;;;;;;;;;;;;;;16.52;48.35;101696.44;5056973;28;1183;-53
2022/11/26 09:20:41;;;;;;;;;;;;;;;17.23;48.85;101699.38;5056039;28;1195;-55
2022/11/26 09:23:06;;;;;;;;;;;;;;;16.79;48.56;101706.72;5056043;28;1186;-52
2022/11/26 09:25:32;;;;;;;;;;;;;;;17.96;48.04;101692.78;5056445;28;1083;-54
2022/11/26 09:27:57;;;;;;;;;;;;;;;17.14;49.20;101702.84;5056541;28;910;-55
2022/11/26 09:30:22;;;;;;;;;;;;;;;16.76;48.48;101688.84;5056278;28;1116;-51
2022/11/26 09:32:48;;;;;;;;;;;;;;;16.70;48.44;101687.91;5055644;28;1120;-50
2022/11/26 09:35:13;;;;;;;;;;;;;;;17.74;48.41;101690.06;5045943;28;1898;-53
2022/11/26 09:37:39;;;;;;;;;;;;;;;16.85;49.04;101686.50;5037956;28;1215;-55
2022/11/26 09:40:04;;;;;;;;;;;;;;;16.80;49.21;101680.91;5056114;28;2662;-55
2022/11/26 09:42:30;;;;;;;;;;;;;;;17.07;49.17;101679.13;5055906;28;1469;-59
2022/11/26 09:45:01;;;;;;;;;;;;;;;17.83;48.34;101672.00;5055790;28;1109;-57
2022/11/26 09:47:27;;;;;;;;;;;;;;;18.93;46.23;101667.94;5056165;28;1112;-58
2022/11/26 09:50:06;;;;;;;;;;;;;;;17.42;48.87;101666.09;5055869;28;1116;-59
2022/11/26 09:53:04;;;;;;;;;;;;;;;16.93;48.15;101659.44;5037299;28;838;-57
2022/11/26 09:55:30;;;;;;;;;;;;;;;17.67;48.56;101671.03;5011026;28;1969;-57
2022/11/26 09:57:58;;;;;;;;;;;;;;;17.03;48.74;101669.72;5055752;28;1135;-59
2022/11/26 10:00:25;;;;;;;;;;;;;;;16.63;48.35;101659.81;5037333;28;1104;-53
2022/11/26 10:02:51;;;;;;;;;;;;;;;17.36;48.65;101667.94;5055625;28;1108;-56
2022/11/26 10:05:16;;;;;;;;;;;;;;;17.07;48.97;101668.13;5055814;28;1245;-56
2022/11/26 10:07:45;;;;;;;;;;;;;;;17.34;49.05;101659.13;5055115;28;1136;-58
2022/11/26 10:10:23;;;;;;;;;;;;;;;18.35;47.48;101667.81;5055541;28;2561;-59
2022/11/26 10:12:55;;;;;;;;;;;;;;;17.25;48.50;101655.16;5042608;28;1108;-56
2022/11/26 10:15:37;;;;;;;;;;;;;;;16.86;48.27;101658.75;5026786;28;1967;-59
2022/11/26 10:18:02;;;;;;;;;;;;;;;16.63;47.63;101654.31;5038074;28;1128;-57
2022/11/26 10:20:36;;;;;;;;;;;;;;;16.60;47.33;101654.81;5055751;28;1199;-56
2022/11/26 10:23:03;;;;;;;;;;;;;;;17.35;48.69;101649.78;5037758;28;1085;-58
2022/11/26 10:25:29;;;;;;;;;;;;;;;16.75;48.31;101657.78;5055013;28;1214;-59
2022/11/26 10:27:55;;;;;;;;;;;;;;;18.17;48.04;101648.94;5037442;28;1113;-59
2022/11/26 10:30:22;;;;;;;;;;;;;;;17.27;49.26;101652.97;5055551;28;1214;-57
2022/11/26 10:32:48;;;;;;;;;;;;;;;16.68;48.79;101651.66;5055359;28;1159;-56
2022/11/26 10:35:17;;;;;;;;;;;;;;;16.77;48.15;101652.88;5054281;28;1969;-57
2022/11/26 10:37:43;;;;;;;;;;;;;;;17.57;48.65;101652.50;5055179;28;1123;-57
2022/11/26 10:40:17;;;;;;;;;;;;;;;17.47;49.05;101657.88;5055373;28;2699;-52
2022/11/26 10:42:43;;;;;;;;;;;;;;;19.13;46.10;101660.84;5055456;28;1127;-57
2022/11/26 10:45:31;;;;;;;;;;;;;;;17.76;48.66;101650.19;5054691;28;1158;-55
2022/11/26 10:48:13;;;;;;;;;;;;;;;17.09;48.59;101660.47;5040433;28;1246;-57
2022/11/26 10:50:38;;;;;;;;;;;;;;;16.92;47.51;101656.94;5044487;28;1112;-56
2022/11/26 10:53:04;;;;;;;;;;;;;;;17.53;48.67;101667.00;5033830;28;1050;-56
2022/11/26 10:55:30;;;;;;;;;;;;;;;16.92;48.60;101662.44;5054308;28;2020;-56
2022/11/26 10:58:01;;;;;;;;;;;;;;;16.69;47.89;101664.31;5054698;28;1084;-58
2022/11/26 11:00:31;;;;;;;;;;;;;;;16.55;47.34;101663.81;5055071;28;1171;-58
2022/11/26 11:02:57;;;;;;;;;;;;;;;17.43;47.90;101668.56;5037780;28;1108;-53
2022/11/26 11:05:23;;;;;;;;;;;;;;;16.73;48.27;101668.22;5054796;28;977;-56
2022/11/26 11:07:52;;;;;;;;;;;;;;;18.35;47.53;101683.50;5055054;28;1175;-55
2022/11/26 11:10:18;;;;;;;;;;;;;;;17.70;48.65;101678.75;5054793;28;2491;-58
2022/11/26 11:12:48;;;;;;;;;;;;;;;17.13;48.44;101676.47;5058405;28;1184;-58
2022/11/26 11:15:22;;;;;;;;;;;;;;;16.89;48.59;101674.75;5040693;28;1906;-58
2022/11/26 11:17:54;;;;;;;;;;;;;;;17.35;49.28;101682.78;5058758;28;1140;-58
2022/11/26 11:20:22;;;;;;;;;;;;;;;16.92;48.73;101681.69;5059237;28;1156;-56
2022/11/26 11:22:54;;;;;;;;;;;;;;;17.01;48.94;101691.16;5058480;28;1179;-57
2022/11/26 11:25:24;;;;;;;;;;;;;;;17.51;48.97;101680.19;5040635;28;1140;-56
2022/11/26 11:27:49;;;;;;;;;;;;;;;16.87;48.57;101682.41;5040648;28;1164;-56
2022/11/26 11:30:24;;;;;;;;;;;;;;;16.67;48.00;101677.44;5041146;28;1143;-56
2022/11/26 11:32:50;;;;;;;;;;;;;;;17.20;48.75;101679.84;5058863;28;1198;-57
2022/11/26 11:35:18;;;;;;;;;;;;;;;16.67;48.58;101671.94;5040236;28;1906;-56
2022/11/26 11:37:51;;;;;;;;;;;;;;;18.45;47.31;101676.16;5058818;28;1077;-56
2022/11/26 11:40:22;;;;;;;;;;;;;;;17.28;48.81;101671.16;5046403;28;2683;-56
2022/11/26 11:42:51;;;;;;;;;;;;;;;16.92;47.95;101671.50;5058250;28;1171;-56
2022/11/26 11:45:21;;;;;;;;;;;;;;;16.67;47.76;101673.88;5040251;28;1187;-56
2022/11/26 11:47:50;;;;;;;;;;;;;;;17.23;48.53;101660.09;5057875;28;1175;-56
2022/11/26 11:50:28;;;;;;;;;;;;;;;17.34;48.97;101664.63;5050190;28;1120;-56
2022/11/26 11:52:53;;;;;;;;;;;;;;;19.01;46.35;101651.97;5053581;28;1159;-58
2022/11/26 11:55:25;;;;;;;;;;;;;;;17.55;48.83;101657.41;5057694;28;1905;-57
2022/11/26 11:58:04;;;;;;;;;;;;;;;17.08;48.32;101649.72;5058111;28;1076;-55
2022/11/26 12:00:39;;;;;;;;;;;;;;;16.83;47.30;101653.78;5028330;28;1124;-56
2022/11/26 12:03:08;;;;;;;;;;;;;;;17.64;48.17;101659.72;5039131;28;1191;-56
2022/11/26 12:05:33;;;;;;;;;;;;;;;16.89;48.59;101662.97;5053079;28;926;-55
2022/11/26 12:07:58;;;;;;;;;;;;;;;17.45;48.56;101668.31;5057091;28;1192;-56
2022/11/26 12:10:26;;;;;;;;;;;;;;;17.41;49.01;101665.25;5056273;28;2608;-55
2022/11/26 12:12:53;;;;;;;;;;;;;;;16.91;48.88;101666.25;5045427;28;1113;-56
2022/11/26 12:15:27;;;;;;;;;;;;;;;16.79;47.71;101668.25;5057342;28;2228;-57
2022/11/26 12:17:55;;;;;;;;;;;;;;;18.08;47.96;101665.94;5054287;28;942;-56
2022/11/26 12:20:24;;;;;;;;;;;;;;;17.02;49.35;101676.31;5057742;28;1202;-53
2022/11/26 12:22:57;;;;;;;;;;;;;;;16.82;48.34;101674.09;5057169;28;1167;-56
2022/11/26 12:25:23;;;;;;;;;;;;;;;17.25;48.50;101677.13;5040012;28;1120;-57
2022/11/26 12:27:54;;;;;;;;;;;;;;;16.98;48.54;101680.66;5057474;28;1144;-57
2022/11/26 12:30:20;;;;;;;;;;;;;;;16.63;48.02;101681.78;5039508;28;1073;-56
2022/11/26 12:32:48;;;;;;;;;;;;;;;17.58;48.24;101686.31;5057185;28;1117;-57
2022/11/26 12:35:14;;;;;;;;;;;;;;;16.84;48.55;101682.06;5039448;28;1910;-56
2022/11/26 12:37:40;;;;;;;;;;;;;;;16.66;47.62;101681.28;5057080;28;1163;-57
2022/11/26 12:40:38;;;;;;;;;;;;;;;16.81;48.33;101677.09;5056959;28;2519;-57
2022/11/26 12:43:05;;;;;;;;;;;;;;;17.03;48.74;101675.22;5008207;28;1319;-56
2022/11/26 12:45:30;;;;;;;;;;;;;;;17.40;48.68;101671.00;5039579;28;1188;-56
2022/11/26 12:47:58;;;;;;;;;;;;;;;18.48;46.88;101677.53;5057114;28;1140;-56